Time;durP1;ratioP1;P1;durP2;ratioP2;P2;SDS_P1;SDS_P2;PMS_P1;PMS_P2;Temp;Humidity;BMP_temperature;BMP_pressure;BME280_temperature;BME280_humidity;BME280_pressure;Samples;Min_cycle;Max_cycle;Signal;HPM_P1;HPM_P2
2022/11/03 00:01:47;;;;;;;7.22;1.60;;;10.80;99.90;;;;;;4876606;29;20049;-75
2022/11/03 00:04:15;;;;;;;9.85;1.95;;;10.80;99.90;;;;;;4876961;29;20461;-74
2022/11/03 00:06:43;;;;;;;5.18;1.50;;;10.80;99.90;;;;;;4876970;29;20104;-74
2022/11/03 00:09:10;;;;;;;6.15;1.30;;;10.70;99.90;;;;;;4861571;29;20083;-74
2022/11/03 00:11:38;;;;;;;4.80;1.60;;;10.80;99.90;;;;;;4893030;29;20056;-74
2022/11/03 00:14:04;;;;;;;7.15;1.40;;;10.80;99.90;;;;;;4877299;29;20056;-74
2022/11/03 00:16:30;;;;;;;6.07;1.92;;;10.90;99.90;;;;;;4881181;29;20593;-74
2022/11/03 00:18:56;;;;;;;5.65;1.50;;;10.80;99.90;;;;;;4895069;29;20516;-74
2022/11/03 00:21:22;;;;;;;5.72;1.52;;;10.80;99.90;;;;;;4896394;29;20079;-74
2022/11/03 00:23:48;;;;;;;7.40;1.92;;;10.80;99.90;;;;;;4895164;29;20056;-75
2022/11/03 00:26:22;;;;;;;7.50;1.58;;;11.00;99.90;;;;;;4895396;29;20084;-75
2022/11/03 00:28:50;;;;;;;7.05;1.77;;;10.90;99.90;;;;;;4879936;29;20082;-75
2022/11/03 00:31:22;;;;;;;5.32;1.35;;;10.90;99.90;;;;;;4896451;29;20059;-74
2022/11/03 00:33:48;;;;;;;8.15;1.60;;;10.90;99.90;;;;;;4898199;29;20096;-74
2022/11/03 00:36:25;;;;;;;9.27;2.22;;;10.90;99.90;;;;;;4899084;29;20044;-75
2022/11/03 00:38:51;;;;;;;9.70;2.13;;;10.80;99.90;;;;;;4876795;29;20421;-74
2022/11/03 00:41:19;;;;;;;10.80;2.17;;;10.80;99.90;;;;;;4889129;29;20507;-74
2022/11/03 00:43:44;;;;;;;8.38;1.85;;;10.90;99.90;;;;;;4889293;29;20516;-74
2022/11/03 00:46:10;;;;;;;5.03;1.50;;;10.80;99.90;;;;;;4883041;29;20083;-74
2022/11/03 00:48:37;;;;;;;6.63;1.70;;;10.70;99.90;;;;;;4895617;29;20400;-74
2022/11/03 00:51:14;;;;;;;6.68;2.30;;;10.80;99.90;;;;;;4885186;29;20110;-74
2022/11/03 00:53:49;;;;;;;6.78;1.80;;;10.80;99.90;;;;;;4897566;29;20052;-75
2022/11/03 00:56:17;;;;;;;6.88;1.70;;;10.70;99.90;;;;;;4889095;29;20075;-75
2022/11/03 00:58:43;;;;;;;6.85;1.85;;;10.70;99.90;;;;;;4889332;29;20052;-76
2022/11/03 01:01:12;;;;;;;7.65;1.90;;;10.80;99.90;;;;;;4879367;29;20048;-74
2022/11/03 01:06:48;;;;;;;5.63;1.60;;;10.70;99.90;;;;;;4879638;29;20045;-74
2022/11/03 01:09:11;;;;;;;6.75;1.60;;;10.70;99.90;;;;;;4881436;29;20055;-74
2022/11/03 01:11:43;;;;;;;7.07;1.77;;;10.70;99.90;;;;;;4910982;29;20040;-74
2022/11/03 01:14:11;;;;;;;4.88;1.55;;;10.60;99.90;;;;;;4886255;29;20056;-74
2022/11/03 01:16:37;;;;;;;6.97;1.58;;;10.60;99.90;;;;;;4897663;29;20048;-74
2022/11/03 01:19:03;;;;;;;8.45;1.75;;;10.60;99.90;;;;;;4881893;29;20522;-75
2022/11/03 01:21:29;;;;;;;7.32;1.85;;;10.60;99.90;;;;;;4898108;29;20159;-75
2022/11/03 01:23:54;;;;;;;3.35;1.40;;;10.60;99.90;;;;;;4882183;29;20079;-73
2022/11/03 01:26:20;;;;;;;5.13;1.52;;;10.60;99.90;;;;;;4914295;29;20044;-75
2022/11/03 01:28:47;;;;;;;5.40;1.75;;;10.60;99.90;;;;;;4902820;29;20401;-74
2022/11/03 01:31:17;;;;;;;;;;;10.60;99.90;;;;;;4893017;29;20044;-76
2022/11/03 01:33:44;;;;;;;7.32;1.92;;;10.60;99.90;;;;;;4896632;29;19925;-82
2022/11/03 01:36:11;;;;;;;4.53;1.20;;;10.60;99.90;;;;;;4879257;29;20131;-82
2022/11/03 01:38:37;;;;;;;7.68;1.70;;;10.60;99.90;;;;;;4894159;29;20041;-81
2022/11/03 01:41:04;;;;;;;;;;;10.60;99.90;;;;;;4885581;29;20096;-81
2022/11/03 01:43:33;;;;;;;6.03;1.92;;;10.60;99.90;;;;;;4898816;29;19930;-82
2022/11/03 01:46:01;;;;;;;6.00;1.80;;;10.70;99.90;;;;;;4898458;29;20464;-83
2022/11/03 01:48:28;;;;;;;5.55;1.45;;;10.60;99.90;;;;;;4901347;29;20044;-82
2022/11/03 01:50:54;;;;;;;6.28;1.70;;;10.60;99.90;;;;;;4904477;29;20192;-83
2022/11/03 01:53:21;;;;;;;6.22;1.85;;;10.60;99.90;;;;;;4872901;29;20309;-84
2022/11/03 01:55:49;;;;;;;6.40;1.83;;;10.60;99.90;;;;;;4893182;29;21640;-83
2022/11/03 01:58:21;;;;;;;8.93;2.05;;;10.60;99.90;;;;;;4891232;29;20049;-84
2022/11/03 02:00:49;;;;;;;6.80;1.60;;;10.70;99.90;;;;;;4895136;29;20488;-83
2022/11/03 02:03:17;;;;;;;9.18;1.90;;;10.70;99.90;;;;;;4895698;29;20048;-83
2022/11/03 02:05:45;;;;;;;8.80;1.60;;;10.70;99.90;;;;;;4906713;29;20045;-83
2022/11/03 02:08:19;;;;;;;7.35;1.80;;;10.60;99.90;;;;;;4894533;29;20059;-83
2022/11/03 02:10:49;;;;;;;5.55;1.45;;;10.60;99.90;;;;;;4895391;29;20048;-83
2022/11/03 02:13:20;;;;;;;6.68;1.58;;;10.60;99.90;;;;;;4907699;29;20040;-83
2022/11/03 02:15:48;;;;;;;5.32;1.75;;;10.60;99.90;;;;;;4894664;29;20052;-84
2022/11/03 02:18:18;;;;;;;5.80;1.80;;;10.50;99.90;;;;;;4908968;29;20036;-83
2022/11/03 02:20:48;;;;;;;6.80;1.70;;;10.50;99.90;;;;;;4896829;29;20526;-83
2022/11/03 02:23:27;;;;;;;5.65;1.80;;;10.50;99.90;;;;;;4895710;29;20044;-83
2022/11/03 02:25:59;;;;;;;6.03;1.70;;;10.50;99.90;;;;;;4898427;29;20419;-83
2022/11/03 02:28:28;;;;;;;6.55;1.60;;;10.50;99.90;;;;;;4878226;29;20040;-83
2022/11/03 02:31:11;;;;;;;9.05;1.95;;;10.40;99.90;;;;;;4895627;29;20055;-83
2022/11/03 02:33:51;;;;;;;6.43;1.83;;;10.50;99.90;;;;;;4912643;29;20052;-84
2022/11/03 02:36:19;;;;;;;11.27;1.83;;;10.40;99.90;;;;;;4894352;29;20075;-83
2022/11/03 02:38:59;;;;;;;7.88;2.25;;;10.40;99.90;;;;;;4912699;29;20044;-81
2022/11/03 02:41:27;;;;;;;6.78;1.95;;;10.50;99.90;;;;;;4911653;29;20059;-73
2022/11/03 02:43:55;;;;;;;6.75;1.77;;;10.50;99.90;;;;;;4912146;29;20111;-74
2022/11/03 02:46:24;;;;;;;4.63;1.48;;;10.40;99.90;;;;;;4876611;29;20326;-74
2022/11/03 02:48:51;;;;;;;7.15;1.40;;;10.50;99.90;;;;;;4907374;29;20123;-74
2022/11/03 02:51:16;;;;;;;4.10;1.40;;;10.50;99.90;;;;;;4900699;29;20044;-74
2022/11/03 02:53:50;;;;;;;5.32;1.77;;;10.40;99.90;;;;;;4916156;29;20060;-74
2022/11/03 02:56:22;;;;;;;4.75;1.30;;;10.40;99.90;;;;;;4916080;29;20047;-75
2022/11/03 02:59:01;;;;;;;6.22;1.48;;;10.50;99.90;;;;;;4884394;29;20075;-74
2022/11/03 03:01:45;;;;;;;7.90;2.10;;;10.40;99.90;;;;;;4900191;29;20364;-74
2022/11/03 03:04:33;;;;;;;7.30;1.65;;;10.50;99.90;;;;;;4899895;29;20052;-74
2022/11/03 03:07:09;;;;;;;4.65;1.38;;;10.50;99.90;;;;;;4889366;29;20388;-74
2022/11/03 03:09:59;;;;;;;11.50;1.90;;;10.40;99.90;;;;;;4914970;29;20485;-74
2022/11/03 03:12:26;;;;;;;6.70;1.70;;;10.60;99.90;;;;;;4899395;29;20048;-74
2022/11/03 03:14:52;;;;;;;;;;;10.50;99.90;;;;;;4877900;29;20055;-74
2022/11/03 03:17:33;;;;;;;7.87;1.87;;;10.60;99.90;;;;;;4883196;29;19927;-74
2022/11/03 03:20:06;;;;;;;8.68;1.75;;;10.60;99.90;;;;;;4899631;29;20048;-74
2022/11/03 03:22:46;;;;;;;10.82;2.10;;;10.60;99.90;;;;;;4898070;29;21085;-74
2022/11/03 03:25:22;;;;;;;9.10;2.08;;;10.70;99.90;;;;;;4897483;29;20060;-74
2022/11/03 03:27:51;;;;;;;5.68;1.70;;;10.60;99.90;;;;;;4915868;29;20048;-75
2022/11/03 03:30:17;;;;;;;5.72;1.70;;;10.70;99.90;;;;;;4899675;29;20075;-74
2022/11/03 03:32:48;;;;;;;7.65;1.60;;;10.70;99.90;;;;;;4886612;29;20155;-74
2022/11/03 03:35:24;;;;;;;6.13;1.55;;;10.70;99.90;;;;;;4914735;29;20060;-82
2022/11/03 03:37:55;;;;;;;4.45;1.52;;;10.70;99.90;;;;;;4916136;29;20487;-82
2022/11/03 03:40:29;;;;;;;6.55;1.55;;;10.70;99.90;;;;;;4894237;29;20083;-82
2022/11/03 03:42:56;;;;;;;6.35;1.67;;;10.70;99.90;;;;;;4900078;29;20056;-82
2022/11/03 03:45:24;;;;;;;5.38;1.70;;;10.70;99.90;;;;;;4901568;29;20044;-81
2022/11/03 03:47:50;;;;;;;5.43;1.58;;;10.70;99.90;;;;;;4902988;29;20052;-83
2022/11/03 03:50:16;;;;;;;2.97;1.15;;;10.80;99.90;;;;;;4905554;29;20040;-81
2022/11/03 03:52:41;;;;;;;5.40;1.52;;;10.70;99.90;;;;;;4905904;29;20135;-82
2022/11/03 03:55:16;;;;;;;4.68;1.35;;;10.70;99.90;;;;;;4895270;29;20041;-82
2022/11/03 03:57:43;;;;;;;5.78;1.70;;;10.70;99.90;;;;;;4892883;29;20144;-81
2022/11/03 04:00:13;;;;;;;6.30;1.70;;;10.70;99.90;;;;;;4894872;29;20470;-82
2022/11/03 04:02:38;;;;;;;6.20;1.70;;;10.70;99.90;;;;;;4898602;29;20045;-81
2022/11/03 04:05:05;;;;;;;4.13;1.40;;;10.60;99.90;;;;;;4866782;29;20036;-81
2022/11/03 04:07:48;;;;;;;7.97;2.05;;;10.70;99.90;;;;;;4882410;29;20119;-82
2022/11/03 04:10:15;;;;;;;6.10;1.60;;;10.70;99.90;;;;;;4898920;29;20455;-81
2022/11/03 04:23:41;;;;;;;5.68;1.50;;;10.70;99.90;;;;;;4893685;29;20060;-83
2022/11/03 04:26:15;;;;;;;4.57;1.30;;;10.70;99.90;;;;;;4881367;29;20136;-82
2022/11/03 04:28:41;;;;;;;5.80;1.45;;;10.60;99.90;;;;;;4896884;29;20135;-83
2022/11/03 04:31:13;;;;;;;;;;;10.60;99.90;;;;;;4897574;29;20489;-83
2022/11/03 04:33:40;;;;;;;5.30;1.70;;;10.60;99.90;;;;;;4911752;29;19923;-83
2022/11/03 04:36:25;;;;;;;3.70;1.52;;;10.50;99.90;;;;;;4883935;29;20047;-83
2022/11/03 04:38:51;;;;;;;5.38;1.35;;;10.60;99.90;;;;;;4886008;29;20092;-83
2022/11/03 04:41:21;;;;;;;7.18;1.55;;;10.60;99.90;;;;;;4899622;29;20040;-82
2022/11/03 04:43:48;;;;;;;6.63;1.70;;;10.70;99.90;;;;;;4899999;29;20071;-83
2022/11/03 04:46:25;;;;;;;7.10;1.52;;;10.70;99.90;;;;;;4899725;29;20048;-82
2022/11/03 04:48:52;;;;;;;4.22;1.35;;;10.60;99.90;;;;;;4883140;29;20044;-83
2022/11/03 04:51:23;;;;;;;3.40;1.30;;;10.70;99.90;;;;;;4883052;29;20040;-82
2022/11/03 04:53:54;;;;;;;6.55;1.63;;;10.60;99.90;;;;;;4883132;29;20449;-80
2022/11/03 04:56:22;;;;;;;5.65;1.58;;;10.70;99.90;;;;;;4910758;29;20140;-82
2022/11/03 04:58:48;;;;;;;6.90;1.55;;;10.70;99.90;;;;;;4886014;29;20047;-82
2022/11/03 05:01:17;;;;;;;4.50;1.48;;;10.80;99.90;;;;;;4903115;29;20484;-82
2022/11/03 05:03:45;;;;;;;6.63;1.60;;;10.80;99.90;;;;;;4898093;29;20083;-83
2022/11/03 05:06:41;;;;;;;6.63;1.50;;;10.80;99.90;;;;;;4906576;29;20131;-83
2022/11/03 05:09:14;;;;;;;5.18;1.48;;;10.70;99.90;;;;;;4882326;29;20048;-82
2022/11/03 05:11:45;;;;;;;8.82;1.80;;;10.80;99.90;;;;;;4900126;29;20055;-82
2022/11/03 05:14:28;;;;;;;5.20;1.70;;;10.70;99.90;;;;;;4898723;29;20048;-82
2022/11/03 05:16:55;;;;;;;4.95;1.52;;;10.70;99.90;;;;;;4867997;29;20055;-82
2022/11/03 05:19:31;;;;;;;4.60;1.25;;;10.60;99.90;;;;;;4913745;29;20048;-82
2022/11/03 05:21:59;;;;;;;3.45;1.10;;;10.60;99.90;;;;;;4892690;29;20120;-82
2022/11/03 05:24:25;;;;;;;4.07;1.70;;;10.70;99.90;;;;;;4887666;29;20040;-82
2022/11/03 05:26:53;;;;;;;3.63;1.05;;;10.60;99.90;;;;;;4882998;29;20048;-75
2022/11/03 05:29:22;;;;;;;3.85;1.20;;;10.60;99.90;;;;;;4890367;29;20389;-75
2022/11/03 05:31:51;;;;;;;5.38;1.38;;;10.60;99.90;;;;;;4879449;29;20063;-75
2022/11/03 05:34:29;;;;;;;3.83;1.17;;;10.70;99.90;;;;;;4892466;29;20046;-75
2022/11/03 05:37:34;;;;;;;4.15;1.48;;;10.60;99.90;;;;;;4893221;29;20044;-75
2022/11/03 05:40:00;;;;;;;4.15;1.10;;;10.60;99.90;;;;;;4901449;29;20047;-82
2022/11/03 05:42:33;;;;;;;3.50;1.25;;;10.60;99.90;;;;;;4909245;29;20055;-82
2022/11/03 05:45:03;;;;;;;2.97;1.20;;;10.50;99.90;;;;;;4897434;29;20047;-82
2022/11/03 05:47:37;;;;;;;4.13;1.38;;;10.50;99.90;;;;;;4882402;29;20052;-82
2022/11/03 05:50:16;;;;;;;5.15;1.58;;;10.70;99.90;;;;;;4901184;29;20095;-82
2022/11/03 05:52:44;;;;;;;5.72;1.50;;;10.70;99.90;;;;;;4883081;29;20095;-81
2022/11/03 05:55:26;;;;;;;4.65;1.42;;;10.70;99.90;;;;;;4902569;29;20083;-80
2022/11/03 05:57:55;;;;;;;4.20;1.30;;;10.60;99.90;;;;;;4901097;29;20126;-81
2022/11/03 06:00:32;;;;;;;4.15;1.20;;;10.70;99.90;;;;;;4898052;29;20056;-80
2022/11/03 06:02:59;;;;;;;6.18;1.75;;;10.60;99.90;;;;;;4876661;29;20092;-81
2022/11/03 06:05:26;;;;;;;6.50;2.13;;;10.60;99.90;;;;;;4908591;29;20116;-81
2022/11/03 06:07:54;;;;;;;6.47;1.65;;;10.50;99.90;;;;;;4896151;29;20377;-80
2022/11/03 06:10:26;;;;;;;5.30;1.60;;;10.60;99.90;;;;;;4888748;29;20087;-80
2022/11/03 06:13:23;;;;;;;4.68;1.67;;;10.50;99.90;;;;;;4881265;29;20075;-80
2022/11/03 06:15:54;;;;;;;3.33;1.25;;;10.50;99.90;;;;;;4894088;29;20100;-82
2022/11/03 06:18:23;;;;;;;4.82;1.40;;;10.50;99.90;;;;;;4901251;29;20087;-83
2022/11/03 06:20:55;;;;;;;2.80;1.00;;;10.50;99.90;;;;;;4916650;29;20058;-79
2022/11/03 06:23:21;;;;;;;4.10;1.20;;;10.60;99.90;;;;;;4885904;29;20059;-80
2022/11/03 06:25:49;;;;;;;5.22;1.35;;;10.40;99.90;;;;;;4903969;29;20613;-80
2022/11/03 06:28:21;;;;;;;4.95;1.60;;;10.50;99.90;;;;;;4904577;29;20115;-81
2022/11/03 06:30:47;;;;;;;4.18;1.13;;;10.50;99.90;;;;;;4886826;29;20040;-81
2022/11/03 06:33:26;;;;;;;5.97;1.40;;;10.40;99.90;;;;;;4901049;29;20067;-82
2022/11/03 06:36:09;;;;;;;5.60;1.40;;;10.40;99.90;;;;;;4903848;29;20072;-79
2022/11/03 06:38:35;;;;;;;4.82;1.33;;;10.50;99.90;;;;;;4901836;29;20040;-79
2022/11/03 06:41:00;;;;;;;5.47;1.58;;;10.50;99.90;;;;;;4902095;29;20048;-81
2022/11/03 06:43:40;;;;;;;5.38;1.63;;;10.50;99.90;;;;;;4896645;29;20088;-80
2022/11/03 06:46:17;;;;;;;3.75;1.30;;;10.50;99.90;;;;;;4895248;29;20087;-82
2022/11/03 06:48:43;;;;;;;5.13;1.60;;;10.50;99.90;;;;;;4913232;29;20068;-80
2022/11/03 06:51:19;;;;;;;4.32;1.60;;;10.50;99.90;;;;;;4879818;29;20404;-80
2022/11/03 06:53:46;;;;;;;4.47;1.77;;;10.60;99.90;;;;;;4884240;29;20480;-80
2022/11/03 06:56:17;;;;;;;6.90;1.95;;;10.70;99.90;;;;;;4905817;29;21227;-79
2022/11/03 06:58:44;;;;;;;3.78;1.27;;;10.70;99.90;;;;;;4901561;29;20404;-80
2022/11/03 07:01:34;;;;;;;5.93;1.58;;;10.60;99.90;;;;;;4904990;29;20492;-82
2022/11/03 07:04:15;;;;;;;5.47;1.42;;;10.60;99.90;;;;;;4895482;29;20075;-82
2022/11/03 07:06:41;;;;;;;4.32;1.52;;;10.70;99.90;;;;;;4894961;29;20511;-78
2022/11/03 07:09:22;;;;;;;6.55;1.70;;;10.70;99.90;;;;;;4899768;29;20051;-80
2022/11/03 07:11:51;;;;;;;6.00;1.77;;;10.80;99.90;;;;;;4900818;29;20048;-79
2022/11/03 07:14:21;;;;;;;5.63;1.70;;;10.70;99.90;;;;;;4900441;29;20544;-80
2022/11/03 07:16:54;;;;;;;5.10;1.65;;;10.90;99.90;;;;;;4883791;29;20048;-79
2022/11/03 07:19:28;;;;;;;5.28;1.65;;;10.80;99.90;;;;;;4900558;29;20080;-79
2022/11/03 07:22:01;;;;;;;6.47;2.03;;;10.80;99.90;;;;;;4900298;29;20083;-79
2022/11/03 07:24:52;;;;;;;5.97;1.85;;;10.90;99.90;;;;;;4899421;29;20428;-79
2022/11/03 07:27:49;;;;;;;6.40;2.15;;;10.90;99.90;;;;;;4900864;29;20131;-79
2022/11/03 07:30:21;;;;;;;6.38;1.83;;;11.00;99.90;;;;;;4861188;29;20056;-79
2022/11/03 07:32:50;;;;;;;4.95;1.50;;;11.10;99.90;;;;;;4899621;29;20095;-79
2022/11/03 07:35:24;;;;;;;7.43;2.17;;;11.10;99.90;;;;;;4899692;29;20536;-79
2022/11/03 07:37:52;;;;;;;5.75;1.70;;;11.10;99.90;;;;;;4915821;29;20140;-78
2022/11/03 07:40:22;;;;;;;3.45;1.58;;;11.20;99.90;;;;;;4899487;29;20111;-78
2022/11/03 07:42:49;;;;;;;4.88;1.70;;;11.20;99.90;;;;;;4900827;29;20052;-79
2022/11/03 07:45:39;;;;;;;6.35;1.85;;;11.20;99.90;;;;;;4900513;29;20052;-79
2022/11/03 07:48:36;;;;;;;4.97;1.73;;;11.20;99.90;;;;;;4900323;29;20055;-73
2022/11/03 07:51:31;;;;;;;4.75;1.50;;;11.30;99.90;;;;;;4899532;29;20074;-75
2022/11/03 07:54:24;;;;;;;6.75;1.90;;;11.40;99.90;;;;;;4899474;29;20052;-75
2022/11/03 07:57:02;;;;;;;6.40;1.80;;;11.40;99.90;;;;;;4882110;29;20484;-74
2022/11/03 07:59:34;;;;;;;4.28;1.60;;;11.40;99.90;;;;;;4899442;29;20087;-75
2022/11/03 08:02:01;;;;;;;4.10;1.50;;;11.40;99.90;;;;;;4899066;29;20040;-75
2022/11/03 08:04:30;;;;;;;4.15;1.52;;;11.40;99.90;;;;;;4915076;29;20055;-75
2022/11/03 08:06:56;;;;;;;7.03;1.90;;;11.50;99.90;;;;;;4899282;29;20040;-75
2022/11/03 08:09:22;;;;;;;5.28;1.80;;;11.60;99.90;;;;;;4898727;29;20050;-75
2022/11/03 08:11:49;;;;;;;5.35;1.83;;;11.50;99.90;;;;;;4883645;29;20055;-75
2022/11/03 08:14:15;;;;;;;6.20;1.95;;;11.70;99.90;;;;;;4883486;29;20052;-75
2022/11/03 08:16:41;;;;;;;5.03;2.20;;;11.70;99.90;;;;;;4898751;29;20044;-75
2022/11/03 08:19:07;;;;;;;5.85;1.55;;;11.70;99.90;;;;;;4882913;29;20046;-75
2022/11/03 08:21:33;;;;;;;3.55;1.48;;;11.80;99.90;;;;;;4883275;29;20043;-74
2022/11/03 08:23:59;;;;;;;6.43;2.03;;;11.80;99.90;;;;;;4898656;29;20044;-75
2022/11/03 08:26:24;;;;;;;6.05;2.00;;;11.80;99.90;;;;;;4898612;29;20044;-74
2022/11/03 08:28:51;;;;;;;4.63;1.60;;;12.00;99.90;;;;;;4898502;29;20044;-75
2022/11/03 08:31:16;;;;;;;;;;;12.10;99.90;;;;;;4883819;29;20036;-75
2022/11/03 08:33:42;;;;;;;5.38;1.70;;;12.10;99.90;;;;;;4897900;29;20021;-75
2022/11/03 08:36:08;;;;;;;6.85;1.77;;;12.20;99.90;;;;;;4898708;29;20051;-82
2022/11/03 08:38:34;;;;;;;;;;;12.20;99.90;;;;;;4900098;29;20188;-81
2022/11/03 08:41:01;;;;;;;5.28;1.80;;;12.30;99.90;;;;;;4899382;29;20349;-81
2022/11/03 08:43:26;;;;;;;;;;;12.50;99.90;;;;;;4899504;29;20114;-76
2022/11/03 08:45:52;;;;;;;6.03;1.50;;;12.50;99.90;;;;;;4898575;29;20374;-75
2022/11/03 08:48:25;;;;;;;4.60;1.85;;;12.60;99.90;;;;;;4882732;29;20042;-75
2022/11/03 08:50:53;;;;;;;8.18;1.67;;;12.60;99.90;;;;;;4882734;29;20146;-75
2022/11/03 08:53:19;;;;;;;5.90;1.60;;;12.70;99.90;;;;;;4898396;29;20051;-75
2022/11/03 08:55:45;;;;;;;5.82;2.10;;;12.70;99.90;;;;;;4897751;29;20048;-75
2022/11/03 08:58:11;;;;;;;4.97;1.70;;;12.70;99.90;;;;;;4898105;29;20111;-75
2022/11/03 09:00:37;;;;;;;4.97;1.70;;;12.80;99.90;;;;;;4898537;29;20362;-75
2022/11/03 09:03:03;;;;;;;4.60;1.70;;;12.80;99.90;;;;;;4897948;29;20484;-75
2022/11/03 09:05:29;;;;;;;6.28;1.80;;;12.80;99.90;;;;;;4898540;29;20155;-75
2022/11/03 09:07:55;;;;;;;5.30;1.88;;;12.80;99.90;;;;;;4882695;29;20044;-75
2022/11/03 09:10:21;;;;;;;4.35;1.40;;;12.80;99.90;;;;;;4897967;29;20404;-75
2022/11/03 09:12:46;;;;;;;4.85;1.63;;;12.80;99.90;;;;;;4897699;29;20071;-75
2022/11/03 09:15:12;;;;;;;6.03;1.80;;;12.80;99.90;;;;;;4897827;29;20043;-74
2022/11/03 09:17:38;;;;;;;7.15;2.03;;;12.90;99.90;;;;;;4897754;29;20040;-74
2022/11/03 09:20:05;;;;;;;8.57;1.90;;;12.90;99.90;;;;;;4897876;29;20050;-74
2022/11/03 09:22:30;;;;;;;7.13;2.17;;;13.00;99.90;;;;;;4897716;29;20445;-75
2022/11/03 09:24:56;;;;;;;4.70;1.55;;;13.00;99.90;;;;;;4897549;29;20046;-74
2022/11/03 09:27:22;;;;;;;8.90;2.20;;;13.00;99.90;;;;;;4898234;29;20130;-74
2022/11/03 09:29:48;;;;;;;6.82;1.85;;;13.00;99.90;;;;;;4898200;29;20040;-74
2022/11/03 09:32:14;;;;;;;3.90;1.70;;;13.00;99.90;;;;;;4897698;29;20472;-76
2022/11/03 09:34:39;;;;;;;5.65;1.60;;;13.20;99.90;;;;;;4897055;29;20064;-75
2022/11/03 09:37:05;;;;;;;5.13;1.73;;;13.10;99.90;;;;;;4881717;29;20119;-74
2022/11/03 09:39:30;;;;;;;3.92;1.45;;;13.20;99.90;;;;;;4898100;29;20091;-74
2022/11/03 09:41:57;;;;;;;5.40;1.40;;;13.20;99.90;;;;;;4897843;29;20075;-74
2022/11/03 09:44:23;;;;;;;5.72;1.90;;;13.20;99.90;;;;;;4882227;29;20044;-74
2022/11/03 09:46:50;;;;;;;8.35;2.38;;;13.30;99.90;;;;;;4897559;29;20130;-74
2022/11/03 09:49:18;;;;;;;5.38;1.60;;;13.40;99.90;;;;;;4882468;29;20054;-74
2022/11/03 09:51:44;;;;;;;5.65;2.00;;;13.40;99.90;;;;;;4897593;29;20083;-75
2022/11/03 09:54:14;;;;;;;6.47;2.10;;;13.50;99.90;;;;;;4897674;29;20093;-75
2022/11/03 09:56:41;;;;;;;6.03;1.42;;;13.50;99.90;;;;;;4897586;29;20449;-75
2022/11/03 09:59:19;;;;;;;5.65;1.90;;;13.60;99.90;;;;;;4897456;29;20051;-76
2022/11/03 10:01:48;;;;;;;6.90;1.98;;;13.70;99.90;;;;;;4897448;29;20042;-75
2022/11/03 10:04:17;;;;;;;5.13;1.92;;;13.70;99.90;;;;;;4897572;29;20040;-75
2022/11/03 10:06:43;;;;;;;5.18;2.05;;;13.80;99.90;;;;;;4881700;29;20055;-75
2022/11/03 10:09:16;;;;;;;5.30;1.77;;;13.90;99.90;;;;;;4897432;29;20044;-75
2022/11/03 10:11:43;;;;;;;5.78;1.50;;;14.00;99.90;;;;;;4897703;29;20377;-75
2022/11/03 10:14:12;;;;;;;3.88;1.58;;;14.10;99.90;;;;;;4882220;29;20079;-75
2022/11/03 10:16:40;;;;;;;5.68;1.50;;;14.20;99.90;;;;;;4898075;29;20496;-76
2022/11/03 10:19:10;;;;;;;6.00;1.92;;;14.20;99.90;;;;;;4898650;29;20060;-75
2022/11/03 10:21:37;;;;;;;3.85;1.40;;;14.30;99.90;;;;;;4882207;29;20037;-76
2022/11/03 10:24:03;;;;;;;6.63;2.00;;;14.30;99.90;;;;;;4897862;29;20103;-74
2022/11/03 10:26:45;;;;;;;6.97;1.85;;;14.30;99.90;;;;;;4897981;29;20040;-75
2022/11/03 10:29:18;;;;;;;9.15;2.40;;;14.30;99.90;;;;;;4882250;29;20046;-75
2022/11/03 10:31:49;;;;;;;4.90;1.75;;;14.30;99.90;;;;;;4897000;29;20055;-75
2022/11/03 10:34:25;;;;;;;6.20;1.65;;;14.30;99.90;;;;;;4897138;29;20060;-75
2022/11/03 10:37:21;;;;;;;5.13;1.45;;;14.30;99.90;;;;;;4897319;29;20088;-74
2022/11/03 10:39:48;;;;;;;3.47;1.20;;;14.30;99.90;;;;;;4896972;29;20051;-75
2022/11/03 10:42:31;;;;;;;4.10;1.48;;;14.40;99.90;;;;;;4896732;29;20048;-75
2022/11/03 10:45:19;;;;;;;4.90;1.77;;;14.40;99.90;;;;;;4881619;29;20052;-76
2022/11/03 10:48:04;;;;;;;6.63;1.90;;;14.50;99.90;;;;;;4897222;29;20141;-76
2022/11/03 10:50:30;;;;;;;5.82;1.80;;;14.60;99.90;;;;;;4880831;29;20460;-75
2022/11/03 10:52:56;;;;;;;5.35;1.60;;;14.70;99.90;;;;;;4881263;29;20052;-75
2022/11/03 10:55:23;;;;;;;;;;;15.00;99.90;;;;;;4897372;29;20048;-75
2022/11/03 10:57:49;;;;;;;3.58;1.42;;;15.20;99.90;;;;;;4912615;29;19990;-75
2022/11/03 11:00:16;;;;;;;5.57;1.63;;;15.30;99.90;;;;;;4898345;29;20488;-74
2022/11/03 11:02:45;;;;;;;5.40;1.73;;;15.30;99.90;;;;;;4900008;29;20074;-75
2022/11/03 11:05:19;;;;;;;3.38;1.48;;;15.30;99.90;;;;;;4900017;29;20063;-75
2022/11/03 11:07:45;;;;;;;6.35;1.40;;;15.30;99.90;;;;;;4897861;29;20471;-74
2022/11/03 11:10:11;;;;;;;5.80;1.58;;;15.30;99.90;;;;;;4906091;29;20044;-75
2022/11/03 11:12:37;;;;;;;5.60;1.77;;;15.30;99.90;;;;;;4895379;29;20477;-76
2022/11/03 11:15:38;;;;;;;4.43;1.40;;;15.40;99.90;;;;;;4883924;29;20071;-75
2022/11/03 11:18:04;;;;;;;5.45;1.55;;;15.70;99.90;;;;;;4911021;29;20071;-76
2022/11/03 11:20:35;;;;;;;2.72;1.45;;;16.00;99.90;;;;;;4895870;29;20040;-76
2022/11/03 11:23:25;;;;;;;4.53;1.65;;;16.20;99.90;;;;;;4898521;29;20079;-74
2022/11/03 11:26:09;;;;;;;5.65;1.73;;;16.30;99.90;;;;;;4902433;29;20071;-74
2022/11/03 11:28:35;;;;;;;4.97;1.65;;;16.20;99.90;;;;;;4883219;29;20542;-73
2022/11/03 11:31:21;;;;;;;;;;;16.20;99.90;;;;;;4896134;29;20103;-73
2022/11/03 11:33:47;;;;;;;5.65;1.77;;;16.20;99.90;;;;;;4885134;29;19971;-73
2022/11/03 11:36:23;;;;;;;4.25;1.63;;;16.30;99.90;;;;;;4902460;29;20080;-73
2022/11/03 11:38:51;;;;;;;3.47;1.50;;;16.30;99.90;;;;;;4900471;29;20147;-73
2022/11/03 11:41:17;;;;;;;3.20;1.40;;;16.20;99.90;;;;;;4894765;29;20080;-74
2022/11/03 11:43:43;;;;;;;4.97;1.42;;;16.20;99.90;;;;;;4896889;29;20070;-73
2022/11/03 11:46:37;;;;;;;3.55;1.40;;;16.10;99.90;;;;;;4897395;29;20956;-73
2022/11/03 11:49:02;;;;;;;4.57;1.30;;;16.00;99.90;;;;;;4876328;29;20049;-74
2022/11/03 11:51:36;;;;;;;2.67;1.20;;;15.90;99.90;;;;;;4899062;29;20111;-74
2022/11/03 11:54:06;;;;;;;6.93;1.52;;;15.90;99.90;;;;;;4886176;29;20548;-75
2022/11/03 11:56:32;;;;;;;5.05;1.60;;;15.90;99.90;;;;;;4897385;29;20102;-74
2022/11/03 11:58:58;;;;;;;4.82;1.42;;;15.90;99.90;;;;;;4898955;29;20493;-74
2022/11/03 12:01:33;;;;;;;4.78;1.50;;;15.80;99.90;;;;;;4897070;29;20079;-75
2022/11/03 12:04:05;;;;;;;3.97;1.35;;;15.80;99.90;;;;;;4914959;29;20151;-74
2022/11/03 12:06:36;;;;;;;3.92;1.30;;;15.80;99.90;;;;;;4894833;29;20052;-74
2022/11/03 12:09:11;;;;;;;5.88;1.50;;;15.80;99.90;;;;;;4893113;29;20091;-74
2022/11/03 12:11:44;;;;;;;4.10;1.23;;;15.80;99.90;;;;;;4880730;29;20061;-74
2022/11/03 12:14:36;;;;;;;4.35;1.30;;;15.90;99.90;;;;;;4865125;29;20060;-82
2022/11/03 12:17:17;;;;;;;3.63;1.13;;;15.80;99.90;;;;;;4882035;29;20464;-82
2022/11/03 12:19:53;;;;;;;6.05;1.50;;;15.80;99.90;;;;;;4867032;29;20045;-82
2022/11/03 12:22:25;;;;;;;4.18;1.60;;;15.80;99.90;;;;;;4897283;29;20120;-81
2022/11/03 12:24:53;;;;;;;5.38;1.40;;;15.80;99.90;;;;;;4882181;29;20057;-82
2022/11/03 12:27:25;;;;;;;5.28;1.60;;;15.70;99.90;;;;;;4866359;29;20119;-81
2022/11/03 12:29:55;;;;;;;3.00;1.20;;;15.70;99.90;;;;;;4882409;29;20049;-82
2022/11/03 12:32:22;;;;;;;4.75;1.30;;;15.70;99.90;;;;;;4881948;29;20040;-81
2022/11/03 12:34:48;;;;;;;2.38;1.10;;;15.60;99.90;;;;;;4897511;29;20060;-82
2022/11/03 12:37:13;;;;;;;4.03;1.27;;;15.60;99.90;;;;;;4881260;29;20056;-74
2022/11/03 12:39:39;;;;;;;3.88;1.40;;;15.60;99.90;;;;;;4880202;29;20080;-74
2022/11/03 12:42:06;;;;;;;3.42;1.33;;;15.60;99.90;;;;;;4880007;29;20074;-75
2022/11/03 12:44:32;;;;;;;3.92;1.20;;;15.50;99.90;;;;;;4880021;29;20123;-75
2022/11/03 12:46:58;;;;;;;6.65;1.33;;;15.50;99.90;;;;;;4891441;29;20106;-75
2022/11/03 12:49:24;;;;;;;5.10;1.40;;;15.50;99.90;;;;;;4901985;29;20111;-75
2022/11/03 12:51:50;;;;;;;4.13;1.48;;;15.50;99.90;;;;;;4909267;29;20131;-76
2022/11/03 12:54:16;;;;;;;3.78;1.30;;;15.50;99.90;;;;;;4898046;29;20056;-74
2022/11/03 12:56:42;;;;;;;;;;;15.50;99.90;;;;;;4898767;29;20047;-74
2022/11/03 12:59:07;;;;;;;3.95;1.45;;;15.50;99.90;;;;;;4898175;29;19919;-74
2022/11/03 13:01:33;;;;;;;4.28;2.05;;;15.50;99.90;;;;;;4897568;29;20214;-74
2022/11/03 13:03:59;;;;;;;5.22;1.50;;;15.60;99.90;;;;;;4897596;29;20498;-74
2022/11/03 13:06:25;;;;;;;4.78;1.73;;;15.60;99.90;;;;;;4881923;29;20469;-74
2022/11/03 13:08:51;;;;;;;6.35;2.03;;;15.60;99.90;;;;;;4898282;29;20048;-74
2022/11/03 13:14:01;;;;;;;3.15;1.10;;;15.70;99.90;;;;;;4897674;29;19927;-75
2022/11/03 13:16:27;;;;;;;4.88;1.20;;;15.80;99.90;;;;;;4882219;29;20059;-75
2022/11/03 13:18:52;;;;;;;3.85;1.23;;;15.90;99.90;;;;;;4898372;29;20119;-75
2022/11/03 13:21:18;;;;;;;3.75;1.10;;;16.00;99.90;;;;;;4898242;29;20052;-75
2022/11/03 13:23:45;;;;;;;5.10;1.40;;;16.00;99.90;;;;;;4897161;29;20063;-75
2022/11/03 13:26:10;;;;;;;4.55;1.30;;;16.00;99.90;;;;;;4897733;29;20476;-75